Time;durP1;ratioP1;P1;durP2;ratioP2;P2;SDS_P1;SDS_P2;PMS_P1;PMS_P2;Temp;Humidity;BMP_temperature;BMP_pressure;BME280_temperature;BME280_humidity;BME280_pressure;Samples;Min_cycle;Max_cycle;Signal;HPM_P1;HPM_P2
2022/01/17 00:02:11;;;;;;;66.78;54.13;;;;;;;3.78;100.00;103238.44;5229238;28;20063;-57
2022/01/17 00:04:41;;;;;;;71.70;54.15;;;;;;;3.77;100.00;103235.91;5228915;28;20111;-56
2022/01/17 00:07:11;;;;;;;58.22;51.08;;;;;;;3.75;100.00;103237.91;5229163;28;20024;-58
2022/01/17 00:09:42;;;;;;;74.20;55.47;;;;;;;3.78;100.00;103235.75;5228951;28;20025;-58
2022/01/17 00:12:12;;;;;;;60.58;53.72;;;;;;;3.78;100.00;103246.44;5228995;28;20515;-56
2022/01/17 00:14:43;;;;;;;74.22;57.60;;;;;;;3.78;100.00;103251.78;5228928;28;20476;-57
2022/01/17 00:19:46;;;;;;;76.85;55.78;;;;;;;3.78;100.00;103253.63;5246705;28;20104;-58
2022/01/17 00:22:19;;;;;;;69.70;57.58;;;;;;;3.68;100.00;103240.34;5228872;28;20020;-58
2022/01/17 00:24:50;;;;;;;69.50;56.63;;;;;;;3.81;100.00;103267.53;5228530;28;20557;-55
2022/01/17 00:27:20;;;;;;;65.30;56.65;;;;;;;3.80;100.00;103271.19;5228779;28;20401;-55
2022/01/17 00:29:51;;;;;;;64.88;54.17;;;;;;;3.68;100.00;103259.06;5228328;28;20116;-60
2022/01/17 00:32:21;;;;;;;66.10;56.47;;;;;;;3.80;100.00;103270.34;5228735;28;20020;-56
2022/01/17 00:34:52;;;;;;;71.63;58.72;;;;;;;3.83;100.00;103286.06;5228374;28;20052;-55
2022/01/17 00:37:22;;;;;;;65.32;57.45;;;;;;;3.83;100.00;103280.72;5228677;28;20069;-56
2022/01/17 00:39:53;;;;;;;76.55;55.35;;;;;;;3.83;100.00;103278.91;5228588;28;20309;-56
2022/01/17 00:42:23;;;;;;;61.15;53.95;;;;;;;3.78;100.00;103275.84;5246296;28;20077;-55
2022/01/17 00:44:54;;;;;;;64.57;57.58;;;;;;;3.81;100.00;103285.38;5246322;28;20059;-59
2022/01/17 00:47:24;;;;;;;70.30;59.72;;;;;;;3.80;100.00;103279.19;5228368;28;20031;-58
2022/01/17 00:57:25;;;;;;;66.32;55.03;;;;;;;3.60;100.00;103269.66;3771021;28;20044;-85
2022/01/17 00:59:55;;;;;;;66.35;59.03;;;;;;;3.43;100.00;103219.72;5259681;28;20081;-85
2022/01/17 01:02:25;;;;;;;68.80;58.63;;;;;;;3.26;100.00;103192.00;5273089;28;20023;-85
2022/01/17 01:04:57;;;;;;;66.63;57.05;;;;;;;3.78;100.00;103277.66;5285858;22;20432;-86
2022/01/17 01:07:29;;;;;;;65.20;58.50;;;;;;;3.16;100.00;103218.78;5272677;28;20116;-86
2022/01/17 01:10:08;;;;;;;69.30;60.53;;;;;;;2.20;100.00;103064.53;5238219;28;20107;-85
2022/01/17 01:12:45;;;;;;;67.88;59.40;;;;;;;3.18;100.00;103218.59;5255227;28;20327;-85
2022/01/17 01:15:33;;;;;;;68.80;52.60;;;;;;;3.64;100.00;103263.03;5255060;28;20382;-87
2022/01/17 01:18:30;;;;;;;70.13;56.65;;;;;;;2.55;100.00;103077.97;5255202;28;20150;-85
2022/01/17 01:29:34;;;;;;;71.50;61.45;;;;;;;3.79;100.00;103317.59;5273222;28;20437;-86
2022/01/17 01:32:08;;;;;;;74.65;57.75;;;;;;;3.41;100.00;103251.09;5254664;28;20096;-85
2022/01/17 01:34:44;;;;;;;62.90;56.03;;;;;;;3.58;100.00;103260.94;5254528;28;20032;-85
2022/01/17 01:37:14;;;;;;;71.75;58.92;;;;;;;2.96;100.00;103164.63;5254713;28;20024;-88
2022/01/17 01:39:49;;;;;;;72.65;56.70;;;;;;;3.43;100.00;103241.09;5254344;28;20035;-86
2022/01/17 01:42:21;;;;;;;69.22;61.05;;;;;;;3.83;100.00;103313.66;5256175;28;20031;-86
2022/01/17 01:44:53;;;;;;;69.70;62.15;;;;;;;3.63;100.00;103304.09;5258470;28;20040;-86
2022/01/17 01:47:25;;;;;;;66.25;59.70;;;;;;;3.82;100.00;103314.63;5258374;28;20538;-86
2022/01/17 01:49:56;;;;;;;73.05;57.90;;;;;;;3.49;100.00;103243.97;5257986;28;20461;-86
2022/01/17 01:52:26;;;;;;;68.90;61.53;;;;;;;3.12;100.00;103193.34;5258451;28;20070;-86
2022/01/17 01:54:56;;;;;;;77.80;54.50;;;;;;;3.25;100.00;103204.50;5258042;28;20034;-86
2022/01/17 01:57:27;;;;;;;79.45;57.25;;;;;;;3.31;100.00;103211.06;5258718;28;20032;-86
2022/01/17 01:59:57;;;;;;;68.03;56.50;;;;;;;3.39;100.00;103241.41;5258165;28;20063;-85
2022/01/17 02:02:28;;;;;;;75.18;58.75;;;;;;;3.35;100.00;103234.66;5257432;28;20039;-90
2022/01/17 02:04:58;;;;;;;74.82;57.60;;;;;;;3.37;100.00;103248.72;5257605;28;20477;-88
2022/01/17 02:07:28;;;;;;;89.65;60.65;;;;;;;3.55;100.00;103256.75;5275740;28;20110;-86
2022/01/17 02:09:59;;;;;;;72.70;56.65;;;;;;;3.19;100.00;103199.75;5257505;28;20504;-85
2022/01/17 02:12:29;;;;;;;61.40;54.90;;;;;;;3.73;100.00;103284.34;5256996;28;20036;-85
2022/01/17 02:15:00;;;;;;;70.90;55.25;;;;;;;3.49;100.00;103269.84;5256834;28;20378;-85
2022/01/17 02:17:34;;;;;;;78.65;61.60;;;;;;;3.16;100.00;103232.13;5256998;28;20154;-90
2022/01/17 02:20:05;;;;;;;66.82;58.92;;;;;;;3.16;100.00;103212.59;5256460;28;20025;-86
2022/01/17 02:22:39;;;;;;;68.93;55.08;;;;;;;3.88;100.00;103334.59;5256399;28;20032;-85
2022/01/17 02:25:10;;;;;;;64.80;55.03;;;;;;;3.04;100.00;103164.75;5257489;28;20039;-87
2022/01/17 02:27:41;;;;;;;63.70;56.97;;;;;;;2.87;100.00;103154.88;5257264;28;20040;-86
2022/01/17 02:30:13;;;;;;;66.47;59.17;;;;;;;2.90;100.00;103143.03;5257073;28;20024;-88
2022/01/17 02:32:43;;;;;;;69.30;58.40;;;;;;;3.15;100.00;103195.72;5257641;28;20074;-85
2022/01/17 02:35:21;;;;;;;67.20;58.42;;;;;;;3.38;100.00;103249.56;5257466;28;20028;-90
2022/01/17 02:37:52;;;;;;;59.17;52.65;;;;;;;3.22;100.00;103209.31;5257913;28;20131;-86
2022/01/17 02:40:24;;;;;;;72.63;54.88;;;;;;;3.14;100.00;103180.72;5257809;28;20032;-86
2022/01/17 02:43:02;;;;;;;64.10;57.30;;;;;;;3.14;100.00;103183.38;5275698;28;20051;-90
2022/01/17 02:48:30;;;;;;;77.30;57.22;;;;;;;3.77;100.00;103324.09;5246260;28;20387;-87
2022/01/17 02:51:02;;;;;;;62.03;55.75;;;;;;;3.08;100.00;103213.34;5258131;28;20096;-86
2022/01/17 02:53:33;;;;;;;66.25;55.70;;;;;;;3.53;100.00;103239.19;5256882;28;20040;-85
2022/01/17 02:56:06;;;;;;;65.85;50.47;;;;;;;3.85;100.00;103295.63;5257469;28;20451;-90
2022/01/17 02:58:37;;;;;;;64.65;58.03;;;;;;;3.08;100.00;103172.44;5257337;28;20420;-86
2022/01/17 03:01:17;;;;;;;65.45;55.40;;;;;;;3.39;100.00;103233.38;5256929;28;20032;-85
2022/01/17 03:03:48;;;;;;;69.40;61.35;;;;;;;3.79;100.00;103277.53;5276532;28;20067;-90
2022/01/17 03:06:19;;;;;;;74.70;57.45;;;;;;;3.67;100.00;103276.91;5257927;28;20031;-86
2022/01/17 03:08:50;;;;;;;62.45;52.03;;;;;;;3.83;100.00;103297.59;5258847;28;20036;-86
2022/01/17 03:11:24;;;;;;;66.80;53.78;;;;;;;3.82;100.00;103317.31;5258064;28;20123;-86
2022/01/17 03:13:55;;;;;;;63.97;53.95;;;;;;;3.56;100.00;103258.41;5258658;28;20110;-86
2022/01/17 03:16:32;;;;;;;63.15;56.47;;;;;;;3.85;100.00;103313.50;5264693;28;20695;-86
2022/01/17 03:19:02;;;;;;;69.10;56.60;;;;;;;3.87;100.00;103299.00;5288658;28;20036;-91
2022/01/17 03:21:33;;;;;;;64.28;55.80;;;;;;;3.61;100.00;103266.00;5274570;28;20035;-93
2022/01/17 03:24:03;;;;;;;79.40;56.13;;;;;;;3.76;100.00;103295.69;5272224;28;20032;-87
2022/01/17 03:26:34;;;;;;;60.05;53.33;;;;;;;3.83;100.00;103302.97;5259919;28;20058;-86
2022/01/17 03:29:05;;;;;;;67.35;58.30;;;;;;;3.70;100.00;103283.78;5255066;28;20067;-85
2022/01/17 03:31:35;;;;;;;63.97;56.38;;;;;;;3.77;100.00;103314.25;5254577;28;20035;-90
2022/01/17 03:34:05;;;;;;;73.38;59.90;;;;;;;3.76;100.00;103296.53;5254669;28;20035;-90
2022/01/17 03:36:36;;;;;;;75.95;58.25;;;;;;;3.77;100.00;103295.53;5255043;28;20027;-86
2022/01/17 03:39:06;;;;;;;70.95;60.30;;;;;;;3.77;100.00;103298.22;5254536;28;20038;-85
2022/01/17 03:41:37;;;;;;;63.50;56.65;;;;;;;3.36;100.00;103232.84;5272714;28;20032;-85
2022/01/17 03:44:08;;;;;;;62.42;55.83;;;;;;;3.47;100.00;103250.47;5254591;28;20028;-89
2022/01/17 03:46:38;;;;;;;74.68;59.10;;;;;;;3.33;100.00;103239.31;5254861;28;20081;-86
2022/01/17 03:49:09;;;;;;;77.15;56.40;;;;;;;3.62;100.00;103287.22;5255760;28;20036;-86
2022/01/17 03:51:39;;;;;;;67.40;60.00;;;;;;;3.58;100.00;103287.66;5256076;28;20032;-86
2022/01/17 03:54:09;;;;;;;79.28;57.35;;;;;;;3.44;100.00;103274.84;5255920;28;20519;-86
2022/01/17 03:56:40;;;;;;;73.03;57.28;;;;;;;3.35;100.00;103265.88;5255875;28;20054;-86
2022/01/17 03:59:11;;;;;;;72.22;55.42;;;;;;;3.38;100.00;103285.13;5256121;28;20024;-90
2022/01/17 04:01:42;;;;;;;74.28;60.33;;;;;;;3.35;100.00;103298.75;5256201;28;20032;-86
2022/01/17 04:04:12;;;;;;;78.03;60.33;;;;;;;2.95;100.00;103236.84;5263540;28;20127;-85
2022/01/17 04:06:43;;;;;;;71.00;62.75;;;;;;;3.12;100.00;103260.09;5282300;28;20039;-85
2022/01/17 04:09:13;;;;;;;70.72;58.85;;;;;;;3.35;100.00;103292.59;5263342;28;20031;-88
2022/01/17 04:11:44;;;;;;;70.15;57.72;;;;;;;3.08;100.00;103266.72;5279788;28;20089;-86
2022/01/17 04:14:16;;;;;;;65.45;58.22;;;;;;;3.21;100.00;103280.56;5253992;28;20122;-84
2022/01/17 04:16:47;;;;;;;65.53;55.60;;;;;;;3.08;100.00;103258.72;5254533;28;20091;-85
2022/01/17 04:19:19;;;;;;;67.78;58.63;;;;;;;3.21;100.00;103285.88;5254209;28;20066;-85
2022/01/17 04:21:49;;;;;;;66.28;52.78;;;;;;;3.19;100.00;103293.22;5254475;28;20259;-85
2022/01/17 04:24:20;;;;;;;68.10;56.95;;;;;;;3.18;100.00;103296.03;5254419;28;20028;-89
2022/01/17 04:26:50;;;;;;;62.72;56.33;;;;;;;2.83;100.00;103244.22;5271908;28;20035;-86
2022/01/17 04:29:20;;;;;;;65.40;57.00;;;;;;;2.88;100.00;103265.13;5271744;28;20462;-86
2022/01/17 04:31:51;;;;;;;67.40;57.88;;;;;;;3.21;100.00;103309.06;5272246;28;20058;-87
2022/01/17 04:34:21;;;;;;;62.72;52.10;;;;;;;3.14;100.00;103290.16;5272829;28;20046;-85
2022/01/17 04:36:51;;;;;;;63.80;56.53;;;;;;;2.97;100.00;103266.91;5253972;28;20023;-85
2022/01/17 04:39:22;;;;;;;64.68;57.80;;;;;;;2.99;100.00;103294.28;5254237;28;20043;-86
2022/01/17 04:41:53;;;;;;;66.57;50.58;;;;;;;3.09;100.00;103310.28;5272911;28;20032;-85
2022/01/17 04:47:13;;;;;;;61.55;54.95;;;;;;;2.74;100.00;103252.25;5273042;28;20086;-85
2022/01/17 04:49:43;;;;;;;67.85;55.13;;;;;;;2.48;100.00;103233.38;5255001;28;20493;-88
2022/01/17 04:52:14;;;;;;;63.65;49.90;;;;;;;2.60;100.00;103258.91;5255391;28;20035;-89
2022/01/17 04:54:51;;;;;;;68.78;55.58;;;;;;;2.79;100.00;103317.53;5254406;28;20042;-86
2022/01/17 04:57:22;;;;;;;57.80;49.20;;;;;;;2.38;100.00;103260.91;5254101;28;20397;-88
2022/01/17 04:59:52;;;;;;;63.80;50.95;;;;;;;2.20;100.00;103243.13;5254628;28;20032;-87
2022/01/17 05:02:24;;;;;;;60.25;52.38;;;;;;;2.21;100.00;103268.78;5254353;28;20043;-86
2022/01/17 05:04:54;;;;;;;58.90;50.58;;;;;;;2.24;100.00;103284.50;5254572;28;20111;-86
2022/01/17 05:07:26;;;;;;;60.78;52.08;;;;;;;2.25;100.00;103307.53;5238594;28;20055;-90
2022/01/17 05:09:57;;;;;;;54.97;49.38;;;;;;;2.04;100.00;103300.50;5254728;28;20066;-85
2022/01/17 05:12:28;;;;;;;56.05;49.92;;;;;;;2.16;100.00;103314.53;5257246;28;20099;-85
2022/01/17 05:14:59;;;;;;;55.72;49.92;;;;;;;2.16;100.00;103322.53;5274813;28;20077;-85
2022/01/17 05:20:01;;;;;;;56.33;50.13;;;;;;;2.28;100.00;103320.56;5277618;28;20039;-85
2022/01/17 05:22:33;;;;;;;65.78;52.05;;;;;;;2.28;100.00;103340.06;5257854;28;20118;-87
2022/01/17 05:25:07;;;;;;;57.00;47.60;;;;;;;2.32;100.00;103338.78;5257623;28;20409;-85
2022/01/17 05:27:39;;;;;;;60.70;49.72;;;;;;;2.15;100.00;103302.19;5257513;28;20103;-84
2022/01/17 05:30:14;;;;;;;72.60;52.88;;;;;;;2.09;100.00;103302.75;5256973;28;20036;-88
2022/01/17 05:32:45;;;;;;;57.25;49.47;;;;;;;1.78;100.00;103266.53;5256709;28;20024;-87
2022/01/17 05:35:15;;;;;;;59.95;47.75;;;;;;;1.90;100.00;103276.09;5256931;28;20035;-86
2022/01/17 05:37:47;;;;;;;62.33;54.70;;;;;;;2.28;100.00;103341.91;5257956;28;20030;-86
2022/01/17 05:40:17;;;;;;;64.05;54.00;;;;;;;1.31;100.00;103183.81;5257289;28;20036;-86
2022/01/17 05:42:48;;;;;;;66.68;54.10;;;;;;;1.32;100.00;103201.47;5237829;28;20049;-90
2022/01/17 05:45:19;;;;;;;60.28;49.05;;;;;;;1.42;100.00;103222.78;5239810;28;20504;-87
2022/01/17 05:47:49;;;;;;;60.50;54.45;;;;;;;1.33;100.00;103219.13;5237951;28;20047;-86
2022/01/17 05:50:20;;;;;;;55.33;49.55;;;;;;;1.38;100.00;103194.75;5256110;28;20056;-86
2022/01/17 05:52:50;;;;;;;57.85;51.20;;;;;;;1.79;100.00;103268.22;5239481;28;20028;-86
2022/01/17 05:55:20;;;;;;;55.03;49.28;;;;;;;2.49;100.00;103337.25;5256183;28;20537;-86
2022/01/17 05:57:51;;;;;;;58.47;52.88;;;;;;;2.17;100.00;103276.22;5237357;28;20425;-89
2022/01/17 06:00:21;;;;;;;64.43;52.22;;;;;;;2.24;100.00;103257.84;5237212;28;20429;-87
2022/01/17 06:02:52;;;;;;;58.50;52.38;;;;;;;2.19;100.00;103255.59;5255263;28;20036;-85
2022/01/17 06:05:22;;;;;;;72.68;57.95;;;;;;;2.99;100.00;103369.03;5255823;28;20067;-86
2022/01/17 06:07:52;;;;;;;60.80;53.67;;;;;;;2.25;100.00;103225.72;5254978;28;20043;-85
2022/01/17 06:10:23;;;;;;;64.63;57.72;;;;;;;2.49;100.00;103278.56;5237127;28;20045;-85
2022/01/17 06:12:54;;;;;;;66.55;59.20;;;;;;;2.85;100.00;103324.13;5237047;28;20047;-88
2022/01/17 06:15:24;;;;;;;73.50;62.58;;;;;;;2.39;100.00;103264.41;5235509;28;20033;-87
2022/01/17 06:17:54;;;;;;;68.10;58.22;;;;;;;2.61;100.00;103293.41;5238079;28;20052;-86
2022/01/17 06:20:25;;;;;;;76.05;58.80;;;;;;;3.11;100.00;103361.69;5238074;28;20490;-86
2022/01/17 06:22:55;;;;;;;74.75;60.80;;;;;;;2.55;100.00;103253.16;5256274;28;20025;-85
2022/01/17 06:25:26;;;;;;;82.38;61.67;;;;;;;2.58;100.00;103255.53;5255509;28;20028;-85
2022/01/17 06:27:56;;;;;;;84.28;59.63;;;;;;;2.50;100.00;103274.94;5236673;28;20028;-85
2022/01/17 06:30:27;;;;;;;72.43;60.85;;;;;;;2.98;100.00;103354.00;5237962;28;20033;-87
2022/01/17 06:32:57;;;;;;;68.65;59.67;;;;;;;3.30;100.00;103399.00;5237997;28;20124;-86
2022/01/17 06:35:28;;;;;;;78.10;62.45;;;;;;;3.27;100.00;103426.84;5237622;28;20036;-87
2022/01/17 06:37:58;;;;;;;72.82;64.22;;;;;;;3.14;100.00;103404.13;5235296;28;20044;-85
2022/01/17 06:40:30;;;;;;;65.55;59.25;;;;;;;2.37;100.00;103275.22;5255437;28;20028;-84
2022/01/17 06:43:00;;;;;;;68.45;61.05;;;;;;;2.07;100.00;103248.72;5257033;28;20494;-83
2022/01/17 06:45:30;;;;;;;64.05;56.40;;;;;;;2.99;100.00;103407.22;5258883;28;20088;-84
2022/01/17 06:48:02;;;;;;;64.75;56.92;;;;;;;2.68;100.00;103352.38;5257854;28;20032;-84
2022/01/17 06:50:33;;;;;;;65.05;57.92;;;;;;;3.02;100.00;103371.41;5258137;28;20059;-84
2022/01/17 06:53:04;;;;;;;74.10;56.83;;;;;;;3.19;100.00;103394.66;5257785;28;20036;-84
2022/01/17 06:55:34;;;;;;;78.90;59.08;;;;;;;2.92;100.00;103349.22;5240367;28;20032;-84
2022/01/17 06:58:05;;;;;;;69.82;60.15;;;;;;;3.14;100.00;103359.56;5240505;28;20501;-84
2022/01/17 07:00:35;;;;;;;103.22;66.20;;;;;;;3.32;100.00;103381.84;5258275;28;20037;-84
2022/01/17 07:05:46;;;;;;;79.05;68.45;;;;;;;3.57;100.00;103433.75;5229297;22;20051;-57
2022/01/17 07:08:16;;;;;;;76.20;62.53;;;;;;;3.57;100.00;103448.94;5250907;28;20495;-59
2022/01/17 07:10:47;;;;;;;73.57;64.97;;;;;;;3.32;100.00;103432.59;5250694;28;20040;-60
2022/01/17 07:13:18;;;;;;;86.82;63.33;;;;;;;3.27;100.00;103456.22;5250706;28;20131;-60
2022/01/17 07:15:48;;;;;;;66.57;55.70;;;;;;;3.21;100.00;103466.63;5250487;28;20032;-58
2022/01/17 07:18:19;;;;;;;64.32;57.05;;;;;;;2.93;100.00;103434.50;5250531;28;20063;-54
2022/01/17 07:20:49;;;;;;;66.72;54.78;;;;;;;2.98;100.00;103445.59;5269086;28;20060;-57
2022/01/17 07:23:20;;;;;;;71.88;57.92;;;;;;;2.97;100.00;103438.56;5250431;28;20035;-57
2022/01/17 07:25:50;;;;;;;65.28;54.80;;;;;;;2.89;100.00;103435.75;5250406;28;20040;-57
2022/01/17 07:28:21;;;;;;;69.10;56.40;;;;;;;2.82;100.00;103431.16;5250521;28;20032;-57
2022/01/17 07:30:51;;;;;;;58.70;52.17;;;;;;;2.69;100.00;103424.25;5250447;28;20089;-58
2022/01/17 07:33:24;;;;;;;81.00;54.30;;;;;;;2.66;100.00;103429.88;5250239;28;20031;-60
2022/01/17 07:35:55;;;;;;;75.35;56.75;;;;;;;2.43;100.00;103396.47;5250403;28;20078;-56
2022/01/17 07:38:25;;;;;;;55.38;49.20;;;;;;;2.62;100.00;103431.13;5250259;28;20067;-57
2022/01/17 07:40:56;;;;;;;76.05;53.17;;;;;;;2.55;100.00;103429.19;5249185;28;20523;-57
2022/01/17 07:43:26;;;;;;;61.78;55.38;;;;;;;2.50;100.00;103437.63;5249860;28;20039;-57
2022/01/17 07:46:05;;;;;;;54.58;48.85;;;;;;;2.48;100.00;103428.91;5250117;28;20039;-61
2022/01/17 07:51:26;;;;;;;64.05;49.65;;;;;;;2.58;100.00;103431.59;5246902;28;20551;-58
2022/01/17 07:53:57;;;;;;;56.97;50.97;;;;;;;2.62;100.00;103423.13;5263451;28;20028;-58
2022/01/17 07:56:28;;;;;;;57.22;51.28;;;;;;;2.76;100.00;103421.03;5249795;28;20495;-59
2022/01/17 07:58:59;;;;;;;59.55;50.45;;;;;;;2.99;100.00;103430.41;5249851;28;20066;-58
2022/01/17 08:01:29;;;;;;;73.28;54.50;;;;;;;3.17;100.00;103433.22;5249540;28;20043;-55
2022/01/17 08:04:00;;;;;;;67.13;55.55;;;;;;;3.29;100.00;103437.38;5249371;28;20036;-57
2022/01/17 08:06:36;;;;;;;60.22;51.83;;;;;;;3.34;100.00;103435.97;5249505;28;20040;-57
2022/01/17 08:09:10;;;;;;;63.50;54.83;;;;;;;3.50;100.00;103445.16;5249654;28;20491;-56
2022/01/17 08:11:42;;;;;;;81.68;54.47;;;;;;;3.60;100.00;103440.66;5249296;28;20123;-56
2022/01/17 08:14:12;;;;;;;69.47;58.42;;;;;;;3.68;100.00;103444.28;5249533;28;20561;-62
2022/01/17 08:16:43;;;;;;;61.80;55.53;;;;;;;3.48;100.00;103418.59;5248282;28;20024;-60
2022/01/17 08:19:14;;;;;;;70.63;50.17;;;;;;;3.77;100.00;103463.91;5249400;28;20114;-57
2022/01/17 08:21:47;;;;;;;65.95;52.55;;;;;;;3.81;100.00;103465.31;5249163;28;20043;-59
2022/01/17 08:24:21;;;;;;;69.93;52.03;;;;;;;3.84;100.00;103464.16;5249180;28;20495;-58
2022/01/17 08:26:52;;;;;;;60.13;51.53;;;;;;;3.79;100.00;103477.13;5249068;28;20494;-58
2022/01/17 08:29:25;;;;;;;53.35;47.90;;;;;;;3.97;100.00;103489.59;5249382;28;20028;-56
2022/01/17 08:32:00;;;;;;;63.88;51.25;;;;;;;4.03;100.00;103491.66;5248899;28;20032;-58
2022/01/17 08:34:32;;;;;;;58.47;52.00;;;;;;;4.05;100.00;103494.16;5248874;28;20457;-60
2022/01/17 08:37:03;;;;;;;58.20;49.63;;;;;;;4.04;100.00;103487.97;5249221;28;20142;-60
2022/01/17 08:39:34;;;;;;;58.83;51.42;;;;;;;4.16;100.00;103485.94;5248848;28;20495;-60
2022/01/17 08:42:10;;;;;;;53.13;47.35;;;;;;;4.17;100.00;103481.44;5248981;28;20036;-61
2022/01/17 08:44:48;;;;;;;55.80;43.58;;;;;;;4.19;100.00;103482.97;5248914;28;20046;-61
2022/01/17 08:47:19;;;;;;;58.03;46.80;;;;;;;4.17;100.00;103471.59;5249119;28;20023;-60
2022/01/17 08:49:50;;;;;;;56.65;49.17;;;;;;;4.15;100.00;103472.72;5248623;28;20055;-60
2022/01/17 08:52:21;;;;;;;52.33;46.88;;;;;;;4.15;100.00;103472.72;5248696;28;20024;-60
2022/01/17 08:54:53;;;;;;;50.70;45.67;;;;;;;4.13;100.00;103478.22;5242195;28;20040;-59
2022/01/17 08:57:25;;;;;;;51.25;41.22;;;;;;;4.08;100.00;103486.69;5228434;28;20024;-60
2022/01/17 08:59:55;;;;;;;53.08;44.38;;;;;;;4.05;100.00;103470.94;5228326;28;20499;-61
2022/01/17 09:02:26;;;;;;;49.78;43.22;;;;;;;3.92;100.00;103457.09;5245767;28;20186;-60
2022/01/17 09:04:56;;;;;;;47.80;42.97;;;;;;;3.99;100.00;103479.59;5227821;28;20044;-59
2022/01/17 09:07:26;;;;;;;55.58;39.42;;;;;;;4.03;100.00;103475.63;5228007;28;20416;-59
2022/01/17 09:09:57;;;;;;;49.20;42.75;;;;;;;4.11;100.00;103477.53;5227858;28;20339;-59
2022/01/17 09:12:27;;;;;;;44.75;39.95;;;;;;;4.13;100.00;103467.53;5227786;28;20033;-60
2022/01/17 09:14:59;;;;;;;56.67;43.75;;;;;;;4.13;100.00;103461.34;5227450;28;20377;-61
2022/01/17 09:17:29;;;;;;;49.17;44.13;;;;;;;4.22;100.00;103481.84;5228012;28;20078;-57
2022/01/17 09:19:59;;;;;;;43.50;39.17;;;;;;;4.30;100.00;103498.00;5227807;28;20400;-60
2022/01/17 09:22:32;;;;;;;47.20;38.65;;;;;;;4.03;100.00;103432.00;5227681;28;20040;-61
2022/01/17 09:25:06;;;;;;;45.95;41.72;;;;;;;4.68;100.00;103510.25;5227753;28;20106;-60
2022/01/17 09:27:37;;;;;;;44.33;39.42;;;;;;;4.83;100.00;103522.13;5227779;28;20112;-61
2022/01/17 09:30:10;;;;;;;42.95;38.63;;;;;;;4.96;100.00;103530.59;5227757;28;20143;-59
2022/01/17 09:32:41;;;;;;;52.13;40.50;;;;;;;4.95;100.00;103514.69;5227570;28;20550;-60
2022/01/17 09:35:12;;;;;;;38.88;34.92;;;;;;;4.93;100.00;103512.16;5227542;28;20082;-61
2022/01/17 09:37:43;;;;;;;43.78;39.03;;;;;;;4.97;100.00;103502.00;5227546;28;20032;-61
2022/01/17 09:40:13;;;;;;;38.53;35.00;;;;;;;5.13;100.00;103528.94;5227494;28;20039;-61
2022/01/17 09:42:45;;;;;;;44.33;36.85;;;;;;;5.20;100.00;103529.16;5227484;28;20515;-59
2022/01/17 09:45:21;;;;;;;50.38;34.95;;;;;;;5.24;100.00;103531.34;5227326;28;20036;-61
2022/01/17 09:47:52;;;;;;;38.70;34.88;;;;;;;5.25;100.00;103549.09;5227977;28;20029;-59
2022/01/17 09:50:33;;;;;;;43.85;33.88;;;;;;;5.09;100.00;103520.34;5227187;28;20062;-60
2022/01/17 09:53:04;;;;;;;38.33;31.35;;;;;;;5.00;100.00;103493.66;5228298;28;20569;-62
2022/01/17 09:55:36;;;;;;;34.85;31.70;;;;;;;5.61;100.00;103552.56;5227879;28;20041;-60
2022/01/17 09:58:08;;;;;;;40.50;30.75;;;;;;;5.83;100.00;103556.53;5228133;28;20032;-61
2022/01/17 10:00:42;;;;;;;44.47;29.45;;;;;;;5.76;100.00;103542.13;5245810;28;20559;-59
2022/01/17 10:03:16;;;;;;;31.88;26.08;;;;;;;5.64;100.00;103532.66;5228968;28;20029;-64
2022/01/17 10:05:47;;;;;;;27.83;24.30;;;;;;;5.74;100.00;103534.22;5231763;28;20043;-62
2022/01/17 10:08:20;;;;;;;27.83;22.77;;;;;;;5.67;100.00;103506.38;5250140;28;20029;-60
2022/01/17 10:11:01;;;;;;;31.52;21.20;;;;;;;5.74;100.00;103530.72;5231777;28;20508;-60
2022/01/17 10:13:35;;;;;;;25.08;21.48;;;;;;;5.77;100.00;103555.34;5231835;28;20480;-60
2022/01/17 10:16:18;;;;;;;36.03;23.27;;;;;;;5.90;100.00;103532.66;5231542;28;20171;-59
2022/01/17 10:19:04;;;;;;;33.28;20.27;;;;;;;5.86;100.00;103553.56;5231594;28;20032;-63
2022/01/17 10:21:49;;;;;;;30.45;20.00;;;;;;;5.93;100.00;103570.72;5231122;28;20037;-61
2022/01/17 10:35:34;;;;;;;20.05;17.73;;;;;;;6.04;100.00;103565.09;5249389;28;20515;-60
2022/01/17 10:38:08;;;;;;;24.35;18.13;;;;;;;5.99;100.00;103532.53;5230992;28;20470;-63
2022/01/17 10:40:46;;;;;;;26.20;19.80;;;;;;;6.22;100.00;103566.84;5231305;28;20538;-62
2022/01/17 10:43:35;;;;;;;27.83;19.15;;;;;;;6.24;100.00;103564.84;5231057;28;20040;-59
2022/01/17 10:46:10;;;;;;;17.75;15.95;;;;;;;6.32;100.00;103571.09;5231187;28;20044;-60
2022/01/17 10:48:43;;;;;;;25.83;19.33;;;;;;;6.37;100.00;103571.44;5230991;28;20033;-63
2022/01/17 10:51:15;;;;;;;30.10;20.27;;;;;;;6.42;100.00;103570.94;5231001;28;20036;-62
2022/01/17 10:53:50;;;;;;;23.23;19.58;;;;;;;6.59;100.00;103582.59;5230607;28;20052;-63
2022/01/17 10:56:24;;;;;;;24.30;16.02;;;;;;;6.59;100.00;103578.06;5230977;28;20419;-64
2022/01/17 10:59:03;;;;;;;27.10;16.45;;;;;;;6.53;100.00;103572.50;5230710;28;20488;-61
2022/01/17 11:01:37;;;;;;;27.30;17.15;;;;;;;6.57;100.00;103582.75;5230499;28;20044;-63
2022/01/17 11:04:09;;;;;;;24.50;18.98;;;;;;;6.52;100.00;103563.63;5230413;28;20047;-63
2022/01/17 11:06:47;;;;;;;17.67;16.10;;;;;;;6.66;100.00;103571.03;5230547;28;20115;-59
2022/01/17 11:09:22;;;;;;;18.63;15.50;;;;;;;6.72;100.00;103594.53;5230449;28;20044;-61
2022/01/17 11:11:53;;;;;;;17.27;15.40;;;;;;;6.78;100.00;103591.22;5230104;28;20032;-61
2022/01/17 11:14:24;;;;;;;44.90;26.58;;;;;;;6.86;100.00;103590.41;5229140;28;20341;-61
2022/01/17 11:16:54;;;;;;;19.90;17.88;;;;;;;6.97;100.00;103597.28;5230463;28;20477;-60
2022/01/17 11:20:25;;;;;;;20.95;18.27;;;;;;;7.08;100.00;103594.28;5230393;28;20032;-61
2022/01/17 11:22:25;;;;;;;25.13;16.38;;;;;;;7.05;100.00;103589.25;5226477;28;20577;-62
2022/01/17 11:24:57;;;;;;;21.35;16.80;;;;;;;7.07;100.00;103580.00;5230075;28;20125;-61
2022/01/17 11:27:27;;;;;;;24.63;15.73;;;;;;;7.08;100.00;103564.72;5230257;28;20032;-63
2022/01/17 11:29:59;;;;;;;17.27;15.27;;;;;;;7.06;100.00;103570.28;5229930;28;20408;-59
2022/01/17 11:32:29;;;;;;;20.65;15.20;;;;;;;7.00;100.00;103559.34;5230039;28;20087;-61
2022/01/17 11:35:04;;;;;;;21.10;13.73;;;;;;;7.06;100.00;103558.69;5229878;28;20502;-59
2022/01/17 11:37:38;;;;;;;22.88;15.77;;;;;;;7.03;100.00;103548.25;5229967;28;20035;-60
2022/01/17 11:40:11;;;;;;;17.00;14.43;;;;;;;7.05;100.00;103546.25;5229804;28;20039;-61
2022/01/17 11:42:41;;;;;;;23.73;14.70;;;;;;;7.16;100.00;103569.28;5247632;28;20036;-59
2022/01/17 11:45:21;;;;;;;24.02;12.85;;;;;;;7.18;100.00;103569.94;5229680;28;20408;-66
2022/01/17 11:48:04;;;;;;;25.25;13.60;;;;;;;7.19;100.00;103569.78;5229889;28;20054;-61
2022/01/17 11:50:42;;;;;;;25.88;16.10;;;;;;;7.15;100.00;103579.19;5229352;28;20040;-64
2022/01/17 11:53:12;;;;;;;20.13;13.85;;;;;;;7.22;100.00;103584.75;5229733;28;20039;-62
2022/01/17 11:55:48;;;;;;;13.98;12.60;;;;;;;7.34;100.00;103578.00;5229529;28;20040;-63
2022/01/17 11:58:30;;;;;;;23.08;14.80;;;;;;;7.34;100.00;103573.47;5229512;28;20028;-61
2022/01/17 12:01:03;;;;;;;14.10;12.80;;;;;;;7.43;100.00;103577.00;5229119;28;20051;-61
2022/01/17 12:03:49;;;;;;;16.38;13.90;;;;;;;7.50;100.00;103582.56;5229200;28;20040;-62
2022/01/17 12:06:22;;;;;;;23.95;14.55;;;;;;;7.51;100.00;103589.63;5229575;28;20404;-60
2022/01/17 12:09:27;;;;;;;19.30;15.30;;;;;;;7.50;100.00;103587.94;5229505;28;20094;-61
2022/01/17 12:12:07;;;;;;;13.63;11.65;;;;;;;7.51;100.00;103593.13;5229161;28;20043;-60
2022/01/17 12:14:51;;;;;;;13.52;12.23;;;;;;;7.47;100.00;103580.19;5229206;28;20037;-60
2022/01/17 12:17:26;;;;;;;21.27;11.77;;;;;;;7.47;100.00;103569.44;5228996;28;20039;-61